Time;durP1;ratioP1;P1;durP2;ratioP2;P2;SDS_P1;SDS_P2;PMS_P1;PMS_P2;Temp;Humidity;BMP_temperature;BMP_pressure;BME280_temperature;BME280_humidity;BME280_pressure;Samples;Min_cycle;Max_cycle;Signal;HPM_P1;HPM_P2
2024/01/16 00:02:09;;;;;;;5.50;5.15;;;;;;;;;;5096442;28;20046;-83
2024/01/16 00:04:53;;;;;;;6.55;5.43;;;;;;;;;;5091616;28;20455;-82
2024/01/16 00:07:38;;;;;;;5.30;4.88;;;;;;;;;;5095121;28;20039;-82
2024/01/16 00:10:23;;;;;;;7.88;5.03;;;;;;;;;;5097973;28;20120;-82
2024/01/16 00:13:06;;;;;;;7.97;5.40;;;;;;;;;;5098482;28;20038;-82
2024/01/16 00:15:51;;;;;;;6.10;5.50;;;;;;;;;;5099975;28;20101;-82
2024/01/16 00:18:34;;;;;;;6.43;5.78;;;;;;;;;;5096839;28;20085;-82
2024/01/16 00:21:18;;;;;;;8.75;6.18;;;;;;;;;;5100147;28;20062;-81
2024/01/16 00:24:02;;;;;;;6.30;5.70;;;;;;;;;;5099468;28;20041;-81
2024/01/16 00:26:46;;;;;;;6.70;6.10;;;;;;;;;;5099730;28;20031;-82
2024/01/16 00:29:30;;;;;;;8.68;6.13;;;;;;;;;;5099774;28;20038;-82
2024/01/16 00:32:15;;;;;;;6.85;6.03;;;;;;;;;;5100011;28;20100;-82
2024/01/16 00:34:59;;;;;;;6.82;5.80;;;;;;;;;;5099259;28;20100;-82
2024/01/16 00:37:43;;;;;;;12.52;7.07;;;;;;;;;;5098294;28;20116;-82
2024/01/16 00:40:30;;;;;;;8.00;6.20;;;;;;;;;;5099195;28;20456;-81
2024/01/16 00:43:14;;;;;;;7.47;6.47;;;;;;;;;;5099159;28;20643;-82
2024/01/16 00:45:58;;;;;;;7.38;6.40;;;;;;;;;;5099393;28;20041;-81
2024/01/16 00:48:42;;;;;;;13.25;6.82;;;;;;;;;;5098066;28;20193;-81
2024/01/16 00:51:26;;;;;;;6.40;5.90;;;;;;;;;;5099175;28;20030;-81
2024/01/16 00:54:10;;;;;;;11.85;6.40;;;;;;;;;;5099202;28;20039;-82
2024/01/16 00:56:59;;;;;;;8.13;6.28;;;;;;;;;;5114060;28;20053;-82
2024/01/16 00:59:43;;;;;;;8.45;6.50;;;;;;;;;;5099439;28;20448;-82
2024/01/16 01:02:27;;;;;;;8.02;5.60;;;;;;;;;;5114330;28;20046;-82
2024/01/16 01:05:11;;;;;;;8.80;5.50;;;;;;;;;;5099305;28;20496;-82
2024/01/16 01:07:55;;;;;;;7.55;6.38;;;;;;;;;;5113417;28;20405;-81
2024/01/16 01:10:39;;;;;;;6.50;5.90;;;;;;;;;;5113119;28;20051;-83
2024/01/16 01:13:25;;;;;;;8.30;6.30;;;;;;;;;;5098609;28;20508;-82
2024/01/16 01:16:08;;;;;;;10.18;5.90;;;;;;;;;;5113793;28;20089;-81
2024/01/16 01:18:52;;;;;;;10.38;6.05;;;;;;;;;;5097007;28;20101;-81
2024/01/16 01:21:36;;;;;;;8.43;6.30;;;;;;;;;;5098092;28;20130;-82
2024/01/16 01:24:20;;;;;;;8.63;6.07;;;;;;;;;;5097460;28;20098;-82
2024/01/16 01:27:05;;;;;;;8.73;6.18;;;;;;;;;;5113599;28;20252;-82
2024/01/16 01:29:49;;;;;;;12.32;6.32;;;;;;;;;;5114092;28;20080;-82
2024/01/16 01:32:33;;;;;;;8.98;5.80;;;;;;;;;;5098376;28;20039;-83
2024/01/16 01:35:19;;;;;;;7.47;5.70;;;;;;;;;;5098517;28;20077;-82
2024/01/16 01:38:03;;;;;;;8.45;6.50;;;;;;;;;;5098663;28;20553;-82
2024/01/16 01:40:47;;;;;;;6.68;6.03;;;;;;;;;;5096984;28;20136;-82
2024/01/16 01:43:31;;;;;;;7.03;5.75;;;;;;;;;;5097815;28;20039;-82
2024/01/16 01:46:18;;;;;;;7.15;5.93;;;;;;;;;;5098090;28;20038;-82
2024/01/16 01:49:02;;;;;;;7.13;6.20;;;;;;;;;;5098161;28;20504;-83
2024/01/16 01:51:46;;;;;;;6.07;5.63;;;;;;;;;;5097416;28;20030;-81
2024/01/16 01:54:31;;;;;;;10.02;6.30;;;;;;;;;;5110351;28;20027;-82
2024/01/16 01:57:15;;;;;;;9.77;6.97;;;;;;;;;;5096842;28;20105;-81
2024/01/16 01:59:59;;;;;;;10.88;6.53;;;;;;;;;;5097332;28;20120;-81
2024/01/16 02:02:44;;;;;;;11.98;7.03;;;;;;;;;;5096896;28;20165;-81
2024/01/16 02:05:29;;;;;;;8.95;6.82;;;;;;;;;;5112491;28;20035;-82
2024/01/16 02:08:13;;;;;;;10.25;7.32;;;;;;;;;;5111719;28;20104;-81
2024/01/16 02:10:57;;;;;;;8.85;6.82;;;;;;;;;;5096590;28;20139;-82
2024/01/16 02:13:41;;;;;;;8.73;7.28;;;;;;;;;;5097441;28;20084;-82
2024/01/16 02:16:26;;;;;;;12.10;7.55;;;;;;;;;;5113049;28;20394;-82
2024/01/16 02:19:10;;;;;;;8.90;6.97;;;;;;;;;;5097547;28;20038;-82
2024/01/16 02:21:57;;;;;;;8.07;7.28;;;;;;;;;;5097541;28;20046;-82
2024/01/16 02:24:41;;;;;;;14.10;7.72;;;;;;;;;;5110186;28;20100;-82
2024/01/16 02:27:25;;;;;;;12.30;7.15;;;;;;;;;;5096503;28;20413;-82
2024/01/16 02:30:09;;;;;;;10.27;7.63;;;;;;;;;;5113189;28;20042;-82
2024/01/16 02:32:53;;;;;;;8.80;7.10;;;;;;;;;;5096613;28;20104;-82
2024/01/16 02:35:36;;;;;;;9.85;7.13;;;;;;;;;;5111962;28;20051;-82
2024/01/16 02:38:20;;;;;;;11.63;8.02;;;;;;;;;;5096188;28;20043;-82
2024/01/16 02:41:04;;;;;;;8.48;7.15;;;;;;;;;;5095729;28;20365;-83
2024/01/16 02:43:48;;;;;;;8.65;6.88;;;;;;;;;;5095479;28;20058;-81
2024/01/16 02:46:32;;;;;;;7.65;6.90;;;;;;;;;;5112145;28;20031;-81
2024/01/16 02:49:16;;;;;;;8.27;6.65;;;;;;;;;;5096852;28;20038;-81
2024/01/16 02:52:00;;;;;;;10.55;6.43;;;;;;;;;;5095108;28;20429;-82
2024/01/16 02:54:44;;;;;;;10.85;7.68;;;;;;;;;;5097168;28;20062;-82
2024/01/16 02:57:28;;;;;;;7.35;6.60;;;;;;;;;;5097130;28;20035;-83
2024/01/16 03:00:13;;;;;;;12.85;7.55;;;;;;;;;;5111289;28;20402;-83
2024/01/16 03:02:57;;;;;;;7.55;6.82;;;;;;;;;;5096759;28;20078;-83
2024/01/16 03:05:41;;;;;;;9.65;6.60;;;;;;;;;;5096876;28;20046;-82
2024/01/16 03:08:25;;;;;;;10.95;6.65;;;;;;;;;;5094300;28;20058;-83
2024/01/16 03:11:09;;;;;;;8.05;6.82;;;;;;;;;;5096255;28;20488;-83
2024/01/16 03:13:53;;;;;;;9.32;6.57;;;;;;;;;;5095614;28;20081;-82
2024/01/16 03:16:37;;;;;;;8.30;6.43;;;;;;;;;;5110339;28;20038;-81
2024/01/16 03:19:21;;;;;;;7.72;6.03;;;;;;;;;;5111124;28;20111;-82
2024/01/16 03:22:05;;;;;;;7.50;6.45;;;;;;;;;;5111383;28;20096;-82
2024/01/16 03:24:49;;;;;;;8.25;6.13;;;;;;;;;;5096602;28;20039;-83
2024/01/16 03:27:33;;;;;;;7.88;6.35;;;;;;;;;;5094487;28;20039;-82
2024/01/16 03:30:17;;;;;;;12.75;7.20;;;;;;;;;;5096161;28;20034;-83
2024/01/16 03:33:01;;;;;;;9.05;6.35;;;;;;;;;;5093904;28;20592;-82
2024/01/16 03:35:45;;;;;;;11.50;7.35;;;;;;;;;;5096074;28;20030;-82
2024/01/16 03:38:29;;;;;;;9.32;6.63;;;;;;;;;;5095285;28;20508;-82
2024/01/16 03:41:13;;;;;;;13.88;7.03;;;;;;;;;;5096031;28;20047;-82
2024/01/16 03:43:57;;;;;;;16.63;7.00;;;;;;;;;;5113138;28;20038;-83
2024/01/16 03:46:41;;;;;;;8.60;6.93;;;;;;;;;;5096920;28;20034;-82
2024/01/16 03:49:25;;;;;;;8.23;6.88;;;;;;;;;;5099655;28;20108;-82
2024/01/16 03:52:09;;;;;;;9.13;7.47;;;;;;;;;;5099495;28;20418;-82
2024/01/16 03:54:53;;;;;;;11.85;7.80;;;;;;;;;;5099645;28;20154;-82
2024/01/16 03:57:37;;;;;;;10.40;7.90;;;;;;;;;;5114313;28;20031;-82
2024/01/16 04:00:21;;;;;;;10.23;8.07;;;;;;;;;;5099997;28;20403;-82
2024/01/16 04:03:07;;;;;;;12.32;8.60;;;;;;;;;;5099676;28;20104;-82
2024/01/16 04:05:50;;;;;;;16.25;9.80;;;;;;;;;;5099687;28;20128;-82
2024/01/16 04:08:34;;;;;;;11.40;10.20;;;;;;;;;;5099503;28;20043;-82
2024/01/16 04:11:18;;;;;;;16.50;10.85;;;;;;;;;;5099489;28;20070;-83
2024/01/16 04:14:02;;;;;;;15.02;11.75;;;;;;;;;;5099826;28;20027;-82
2024/01/16 04:16:46;;;;;;;19.20;12.90;;;;;;;;;;5099315;28;20119;-81
2024/01/16 04:19:33;;;;;;;21.35;13.18;;;;;;;;;;5115293;28;20031;-82
2024/01/16 04:22:17;;;;;;;20.30;13.95;;;;;;;;;;5099410;28;20081;-82
2024/01/16 04:25:01;;;;;;;24.23;15.23;;;;;;;;;;5099821;28;20026;-82
2024/01/16 04:27:45;;;;;;;25.77;14.88;;;;;;;;;;5098551;28;20169;-82
2024/01/16 04:30:29;;;;;;;22.45;13.45;;;;;;;;;;5098581;28;20046;-82
2024/01/16 04:33:13;;;;;;;23.00;13.15;;;;;;;;;;5097467;28;20054;-82
2024/01/16 04:35:57;;;;;;;23.85;14.80;;;;;;;;;;5099092;28;20085;-83
2024/01/16 04:38:41;;;;;;;27.65;14.77;;;;;;;;;;5099393;28;20435;-82
2024/01/16 04:41:25;;;;;;;25.98;14.98;;;;;;;;;;5113140;28;20039;-82
2024/01/16 04:44:09;;;;;;;25.00;13.75;;;;;;;;;;5098746;28;20538;-81
2024/01/16 04:46:53;;;;;;;24.17;14.43;;;;;;;;;;5099104;28;20039;-81
2024/01/16 04:49:37;;;;;;;19.15;12.75;;;;;;;;;;5099024;28;20381;-81
2024/01/16 04:52:21;;;;;;;20.67;12.77;;;;;;;;;;5098744;28;20039;-82
2024/01/16 04:55:05;;;;;;;21.10;12.93;;;;;;;;;;5098513;28;20457;-82
2024/01/16 04:57:50;;;;;;;19.88;13.05;;;;;;;;;;5114572;28;20093;-81
2024/01/16 05:00:34;;;;;;;24.30;14.20;;;;;;;;;;5098628;28;20090;-82
2024/01/16 05:03:18;;;;;;;18.80;12.77;;;;;;;;;;5097744;28;20058;-83
2024/01/16 05:06:02;;;;;;;22.40;13.93;;;;;;;;;;5112786;28;20046;-81
2024/01/16 05:08:46;;;;;;;20.88;13.52;;;;;;;;;;5112853;28;20101;-82
2024/01/16 05:11:29;;;;;;;31.10;13.75;;;;;;;;;;5098260;28;20550;-82
2024/01/16 05:14:13;;;;;;;20.27;13.20;;;;;;;;;;5111819;28;20131;-82
2024/01/16 05:16:57;;;;;;;26.52;13.88;;;;;;;;;;5098196;28;20034;-80
2024/01/16 05:19:41;;;;;;;23.05;13.50;;;;;;;;;;5113529;28;20034;-81
2024/01/16 05:22:25;;;;;;;19.10;13.15;;;;;;;;;;5113695;28;20062;-81
2024/01/16 05:25:09;;;;;;;27.50;14.30;;;;;;;;;;5098222;28;20035;-82
2024/01/16 05:27:53;;;;;;;20.15;14.15;;;;;;;;;;5098027;28;20572;-82
2024/01/16 05:30:37;;;;;;;19.90;13.65;;;;;;;;;;5098135;28;20096;-81
2024/01/16 05:33:21;;;;;;;23.48;13.48;;;;;;;;;;5097838;28;20049;-82
2024/01/16 05:36:05;;;;;;;21.85;13.57;;;;;;;;;;5096430;28;20492;-82
2024/01/16 05:38:50;;;;;;;22.85;14.60;;;;;;;;;;5113395;28;20052;-83
2024/01/16 05:41:34;;;;;;;24.67;14.70;;;;;;;;;;5113313;28;20092;-81
2024/01/16 05:44:18;;;;;;;24.88;14.50;;;;;;;;;;5097735;28;20043;-82
2024/01/16 05:47:02;;;;;;;22.48;13.05;;;;;;;;;;5098303;28;20162;-82
2024/01/16 05:49:46;;;;;;;24.13;13.05;;;;;;;;;;5097606;28;20031;-82
2024/01/16 05:52:30;;;;;;;21.25;12.38;;;;;;;;;;5097642;28;20055;-83
2024/01/16 05:55:14;;;;;;;19.27;13.13;;;;;;;;;;5111762;28;20461;-83
2024/01/16 05:58:01;;;;;;;18.83;11.13;;;;;;;;;;5097706;28;20115;-82
2024/01/16 06:00:45;;;;;;;13.85;10.23;;;;;;;;;;5097921;28;20031;-82
2024/01/16 06:03:29;;;;;;;18.27;11.15;;;;;;;;;;5112258;28;20043;-82
2024/01/16 06:06:13;;;;;;;15.30;8.80;;;;;;;;;;5096807;28;20124;-81
2024/01/16 06:08:58;;;;;;;10.02;8.40;;;;;;;;;;5097504;28;20085;-81
2024/01/16 06:11:42;;;;;;;10.85;6.93;;;;;;;;;;5112726;28;20492;-82
2024/01/16 06:14:26;;;;;;;12.90;7.40;;;;;;;;;;5097422;28;20115;-81
2024/01/16 06:17:10;;;;;;;11.13;7.18;;;;;;;;;;5096838;28;20539;-81
2024/01/16 06:19:54;;;;;;;7.18;6.45;;;;;;;;;;5096424;28;20030;-81
2024/01/16 06:22:38;;;;;;;11.77;7.57;;;;;;;;;;5109895;28;20160;-81
2024/01/16 06:25:22;;;;;;;13.93;7.93;;;;;;;;;;5096957;28;20508;-82
2024/01/16 06:28:07;;;;;;;8.50;7.60;;;;;;;;;;5096671;28;20080;-82
2024/01/16 06:30:51;;;;;;;13.77;9.30;;;;;;;;;;5097063;28;20092;-82
2024/01/16 06:33:35;;;;;;;12.65;7.85;;;;;;;;;;5111754;28;20034;-82
2024/01/16 06:36:19;;;;;;;8.20;7.40;;;;;;;;;;5096946;28;20124;-82
2024/01/16 06:39:03;;;;;;;6.68;6.07;;;;;;;;;;5096809;28;20031;-82
2024/01/16 06:41:47;;;;;;;6.28;4.72;;;;;;;;;;5097139;28;20390;-81
2024/01/16 06:44:32;;;;;;;5.07;4.65;;;;;;;;;;5095323;27;20455;-82
2024/01/16 06:47:16;;;;;;;6.43;5.15;;;;;;;;;;5111423;28;20038;-83
2024/01/16 06:50:00;;;;;;;5.57;4.82;;;;;;;;;;5095713;28;20034;-82
2024/01/16 06:52:44;;;;;;;5.07;4.57;;;;;;;;;;5096705;28;20517;-82
2024/01/16 06:55:27;;;;;;;6.20;5.50;;;;;;;;;;5096450;28;20035;-83
2024/01/16 06:58:12;;;;;;;11.75;8.45;;;;;;;;;;5096321;28;20055;-82
2024/01/16 07:00:56;;;;;;;8.65;7.07;;;;;;;;;;5096994;28;20031;-83
2024/01/16 07:03:40;;;;;;;5.97;5.22;;;;;;;;;;5097942;27;20050;-82
2024/01/16 07:06:24;;;;;;;9.50;7.75;;;;;;;;;;5096538;28;20085;-82
2024/01/16 07:09:10;;;;;;;8.90;6.05;;;;;;;;;;5095518;28;20092;-82
2024/01/16 07:11:54;;;;;;;7.60;5.50;;;;;;;;;;5095747;28;20042;-82
2024/01/16 07:14:40;;;;;;;7.95;5.88;;;;;;;;;;5111118;28;20069;-82
2024/01/16 07:17:23;;;;;;;7.47;6.38;;;;;;;;;;5096230;28;20082;-82
2024/01/16 07:20:07;;;;;;;6.65;5.90;;;;;;;;;;5096066;28;20070;-83
2024/01/16 07:22:52;;;;;;;7.28;6.57;;;;;;;;;;5096389;28;20085;-83
2024/01/16 07:25:36;;;;;;;7.80;6.60;;;;;;;;;;5096307;28;20053;-82
2024/01/16 07:28:21;;;;;;;8.27;6.75;;;;;;;;;;5110638;28;20508;-83
2024/01/16 07:31:06;;;;;;;9.65;7.65;;;;;;;;;;5097052;28;20124;-83
2024/01/16 07:33:50;;;;;;;10.27;7.60;;;;;;;;;;5110092;28;20124;-83
2024/01/16 07:36:33;;;;;;;9.35;8.13;;;;;;;;;;5095891;28;20543;-82
2024/01/16 07:39:17;;;;;;;12.45;9.15;;;;;;;;;;5096251;28;20504;-85
2024/01/16 07:42:01;;;;;;;11.32;9.15;;;;;;;;;;5097493;28;20089;-82
2024/01/16 07:44:45;;;;;;;11.65;9.73;;;;;;;;;;5097326;28;20038;-84
2024/01/16 07:47:30;;;;;;;13.80;11.40;;;;;;;;;;5110604;28;20124;-83
2024/01/16 07:50:14;;;;;;;14.63;11.05;;;;;;;;;;5096825;28;20409;-83
2024/01/16 07:52:58;;;;;;;20.40;11.80;;;;;;;;;;5111697;28;20441;-82
2024/01/16 07:55:42;;;;;;;14.52;11.55;;;;;;;;;;5096605;28;20047;-83
2024/01/16 07:58:26;;;;;;;18.60;12.30;;;;;;;;;;5095385;28;20092;-83
2024/01/16 08:01:10;;;;;;;15.30;11.13;;;;;;;;;;5096165;28;20050;-81
2024/01/16 08:03:55;;;;;;;17.35;12.00;;;;;;;;;;5111389;28;20104;-83
2024/01/16 08:06:39;;;;;;;18.48;13.32;;;;;;;;;;5111299;28;20473;-83
2024/01/16 08:09:22;;;;;;;18.67;12.10;;;;;;;;;;5096029;28;20127;-83
2024/01/16 08:12:07;;;;;;;16.35;11.57;;;;;;;;;;5095639;28;20103;-82
2024/01/16 08:14:52;;;;;;;15.95;11.82;;;;;;;;;;5095954;28;20034;-83
2024/01/16 08:17:35;;;;;;;16.02;12.23;;;;;;;;;;5096414;28;20038;-82
2024/01/16 08:20:53;;;;;;;15.52;12.13;;;;;;;;;;5095336;28;20031;-84
2024/01/16 08:23:36;;;;;;;16.98;11.93;;;;;;;;;;5110296;28;20038;-83
2024/01/16 08:26:20;;;;;;;16.35;12.48;;;;;;;;;;5096193;28;20104;-83
2024/01/16 08:29:05;;;;;;;15.98;11.90;;;;;;;;;;5094715;28;20634;-84
2024/01/16 08:31:49;;;;;;;15.00;11.45;;;;;;;;;;5114648;28;20046;-83
2024/01/16 08:34:33;;;;;;;15.70;11.85;;;;;;;;;;5100679;28;20038;-84
2024/01/16 08:37:17;;;;;;;16.55;12.85;;;;;;;;;;5113824;28;20027;-84
2024/01/16 08:40:03;;;;;;;17.17;13.38;;;;;;;;;;5097399;28;20031;-84
2024/01/16 08:42:51;;;;;;;17.70;13.57;;;;;;;;;;5111924;28;20062;-81
2024/01/16 08:45:35;;;;;;;16.50;11.85;;;;;;;;;;5099390;28;20491;-83
2024/01/16 08:48:19;;;;;;;19.70;12.18;;;;;;;;;;5099014;28;20050;-83
2024/01/16 08:51:05;;;;;;;15.05;12.25;;;;;;;;;;5113559;28;20034;-82
2024/01/16 08:53:49;;;;;;;17.05;12.93;;;;;;;;;;5099907;28;20429;-83
2024/01/16 08:56:33;;;;;;;15.25;12.73;;;;;;;;;;5096598;28;20115;-83
2024/01/16 08:59:17;;;;;;;16.40;11.70;;;;;;;;;;5095654;28;20035;-86
2024/01/16 09:02:07;;;;;;;15.02;11.77;;;;;;;;;;5100432;28;20470;-84
2024/01/16 09:04:54;;;;;;;17.17;12.48;;;;;;;;;;5094329;28;20140;-85
2024/01/16 09:07:38;;;;;;;15.73;11.95;;;;;;;;;;5094868;28;20181;-87
2024/01/16 09:10:22;;;;;;;19.13;11.63;;;;;;;;;;5093739;28;20062;-84
2024/01/16 09:13:07;;;;;;;20.70;12.40;;;;;;;;;;5094923;28;20093;-86
2024/01/16 09:15:53;;;;;;;15.23;12.05;;;;;;;;;;5094800;28;20102;-82
2024/01/16 09:18:37;;;;;;;14.57;10.50;;;;;;;;;;5075262;28;20048;-84
2024/01/16 09:21:21;;;;;;;14.65;11.45;;;;;;;;;;5079523;28;20402;-84
2024/01/16 09:24:05;;;;;;;12.82;11.18;;;;;;;;;;5092833;28;20055;-84
2024/01/16 09:26:49;;;;;;;14.45;11.82;;;;;;;;;;5094606;28;20035;-82
2024/01/16 09:29:33;;;;;;;14.20;11.40;;;;;;;;;;5093364;28;20034;-82
2024/01/16 09:32:17;;;;;;;13.75;11.60;;;;;;;;;;5091804;28;20395;-83
2024/01/16 09:35:03;;;;;;;14.32;11.95;;;;;;;;;;5079604;28;20387;-83
2024/01/16 09:37:47;;;;;;;18.10;12.80;;;;;;;;;;5094501;28;20030;-83
2024/01/16 09:40:31;;;;;;;17.92;13.35;;;;;;;;;;5072794;28;20403;-84
2024/01/16 09:43:38;;;;;;;26.40;15.27;;;;;;;;;;5091984;28;20035;-83
2024/01/16 09:46:22;;;;;;;16.77;12.63;;;;;;;;;;5094180;28;20055;-84
2024/01/16 09:49:06;;;;;;;21.38;15.30;;;;;;;;;;5079437;28;20146;-82
2024/01/16 09:51:51;;;;;;;17.60;12.38;;;;;;;;;;5087239;28;20059;-84
2024/01/16 09:54:34;;;;;;;16.10;11.38;;;;;;;;;;5078852;28;20047;-83
2024/01/16 09:57:22;;;;;;;15.73;11.48;;;;;;;;;;5092376;28;20086;-85
2024/01/16 10:00:12;;;;;;;20.15;10.35;;;;;;;;;;5078900;28;20386;-82
2024/01/16 10:02:58;;;;;;;24.35;11.63;;;;;;;;;;5098891;28;20101;-84
2024/01/16 10:05:42;;;;;;;16.30;10.35;;;;;;;;;;5099051;28;20131;-84
2024/01/16 10:08:27;;;;;;;14.77;10.55;;;;;;;;;;5098949;28;20046;-85
2024/01/16 10:11:10;;;;;;;17.13;11.68;;;;;;;;;;5099180;28;20054;-86
2024/01/16 10:13:55;;;;;;;21.48;11.20;;;;;;;;;;5098707;28;20061;-83
2024/01/16 10:17:17;;;;;;;20.83;9.73;;;;;;;;;;5098815;28;20567;-87
2024/01/16 10:20:04;;;;;;;13.93;10.45;;;;;;;;;;5031807;28;20059;-85
2024/01/16 10:22:52;;;;;;;13.77;9.98;;;;;;;;;;5093855;28;20035;-86
2024/01/16 10:25:37;;;;;;;12.65;9.80;;;;;;;;;;5099914;28;20088;-87
2024/01/16 10:28:21;;;;;;;14.98;9.80;;;;;;;;;;5098432;28;20047;-83
2024/01/16 10:31:05;;;;;;;10.15;7.93;;;;;;;;;;5114066;28;20073;-87
2024/01/16 10:33:50;;;;;;;11.63;8.85;;;;;;;;;;5098738;28;20516;-87
2024/01/16 10:36:34;;;;;;;10.02;7.90;;;;;;;;;;5114081;28;20084;-85
2024/01/16 10:39:18;;;;;;;17.77;9.63;;;;;;;;;;5107492;28;20034;-85
2024/01/16 10:42:02;;;;;;;12.68;8.40;;;;;;;;;;5113757;28;20077;-83
2024/01/16 10:44:53;;;;;;;13.07;8.55;;;;;;;;;;5098755;28;20123;-84
2024/01/16 10:47:37;;;;;;;11.88;8.55;;;;;;;;;;5098383;28;20105;-82
2024/01/16 10:50:21;;;;;;;11.25;8.15;;;;;;;;;;5098246;28;20035;-85
2024/01/16 10:53:06;;;;;;;11.65;7.60;;;;;;;;;;5113785;28;20038;-86
2024/01/16 10:55:51;;;;;;;18.00;7.80;;;;;;;;;;5114018;28;20062;-85
2024/01/16 10:58:36;;;;;;;9.02;7.82;;;;;;;;;;5094286;28;20043;-84
2024/01/16 11:01:20;;;;;;;9.85;8.48;;;;;;;;;;5109687;28;20034;-86
2024/01/16 11:04:05;;;;;;;13.00;7.13;;;;;;;;;;5097977;28;20405;-87
2024/01/16 11:06:51;;;;;;;9.10;7.22;;;;;;;;;;5113642;28;20043;-84
2024/01/16 11:09:36;;;;;;;7.95;6.88;;;;;;;;;;5113833;28;20082;-86
2024/01/16 11:12:22;;;;;;;10.32;7.43;;;;;;;;;;5097986;28;20034;-88
2024/01/16 11:15:07;;;;;;;11.05;5.90;;;;;;;;;;5097948;28;20039;-85
2024/01/16 11:17:52;;;;;;;11.27;7.07;;;;;;;;;;5098332;28;20076;-85
2024/01/16 11:20:37;;;;;;;9.85;5.82;;;;;;;;;;5113269;28;20039;-85
2024/01/16 11:23:20;;;;;;;6.35;5.18;;;;;;;;;;5113394;28;20053;-84
2024/01/16 11:26:23;;;;;;;8.15;5.90;;;;;;;;;;5113488;28;20051;-86
2024/01/16 11:29:26;;;;;;;9.35;5.68;;;;;;;;;;5113502;28;20096;-86
2024/01/16 11:32:30;;;;;;;6.78;5.30;;;;;;;;;;5077719;28;20067;-87
2024/01/16 11:35:31;;;;;;;14.23;6.55;;;;;;;;;;5077532;28;20397;-87
2024/01/16 11:38:26;;;;;;;6.53;5.82;;;;;;;;;;5093233;28;20039;-87
2024/01/16 11:41:11;;;;;;;6.55;5.95;;;;;;;;;;5087579;28;20092;-84
2024/01/16 11:43:54;;;;;;;8.88;7.22;;;;;;;;;;5113102;28;20523;-86
2024/01/16 11:46:58;;;;;;;8.00;6.50;;;;;;;;;;5098065;28;20043;-87
2024/01/16 11:49:42;;;;;;;;;;;;;;;;;;5098221;28;20505;-83
2024/01/16 11:52:42;;;;;;;8.02;6.68;;;;;;;;;;5112715;28;20392;-86
2024/01/16 11:55:26;;;;;;;7.63;6.63;;;;;;;;;;5112824;28;20034;-88
2024/01/16 11:58:29;;;;;;;7.05;6.32;;;;;;;;;;5077642;28;20431;-85
2024/01/16 12:01:14;;;;;;;7.88;7.07;;;;;;;;;;5077394;28;20060;-85
2024/01/16 12:04:05;;;;;;;8.10;6.45;;;;;;;;;;5092737;28;20414;-86
2024/01/16 12:06:58;;;;;;;7.07;6.15;;;;;;;;;;5115715;28;20030;-86
2024/01/16 12:09:42;;;;;;;12.25;6.88;;;;;;;;;;5117073;28;20467;-86
2024/01/16 12:12:26;;;;;;;10.10;6.97;;;;;;;;;;5116888;28;20124;-85
2024/01/16 12:15:16;;;;;;;13.35;6.38;;;;;;;;;;5116968;28;20047;-85
2024/01/16 12:18:00;;;;;;;11.48;6.57;;;;;;;;;;5101042;28;20043;-88
2024/01/16 12:20:44;;;;;;;8.63;7.00;;;;;;;;;;5116313;28;20046;-85
2024/01/16 12:23:44;;;;;;;11.60;6.70;;;;;;;;;;5116278;28;20090;-86
2024/01/16 12:26:41;;;;;;;7.50;6.00;;;;;;;;;;5100753;28;20516;-87
2024/01/16 12:29:26;;;;;;;8.23;6.00;;;;;;;;;;5081364;28;20600;-86
2024/01/16 12:32:11;;;;;;;9.60;6.50;;;;;;;;;;5100479;28;20051;-86
2024/01/16 12:34:55;;;;;;;8.35;7.05;;;;;;;;;;5116216;28;20122;-86
2024/01/16 12:37:39;;;;;;;8.18;6.30;;;;;;;;;;5095235;28;20063;-86
2024/01/16 12:40:46;;;;;;;9.98;6.60;;;;;;;;;;5100645;28;20126;-88
2024/01/16 12:43:31;;;;;;;11.80;6.72;;;;;;;;;;5100741;28;20035;-85
2024/01/16 12:46:15;;;;;;;8.90;6.35;;;;;;;;;;5100914;28;20046;-86
2024/01/16 12:49:00;;;;;;;6.22;5.63;;;;;;;;;;5100652;28;20039;-85
2024/01/16 12:51:44;;;;;;;9.85;6.63;;;;;;;;;;5114723;28;20630;-85
2024/01/16 12:54:28;;;;;;;8.00;6.00;;;;;;;;;;5119009;28;20512;-91
2024/01/16 12:57:19;;;;;;;13.80;6.78;;;;;;;;;;5105002;28;20455;-90
2024/01/16 13:00:22;;;;;;;10.50;6.70;;;;;;;;;;5105933;28;20034;-91
2024/01/16 13:03:06;;;;;;;7.32;6.50;;;;;;;;;;5104143;28;20140;-91
2024/01/16 13:05:56;;;;;;;10.20;8.35;;;;;;;;;;5104911;28;20046;-91
2024/01/16 13:08:40;;;;;;;10.25;7.20;;;;;;;;;;5104579;28;20043;-90
2024/01/16 13:11:27;;;;;;;11.85;6.95;;;;;;;;;;5104251;28;20406;-90
2024/01/16 13:14:11;;;;;;;11.18;7.15;;;;;;;;;;5104067;28;20110;-90
2024/01/16 13:16:55;;;;;;;11.15;7.43;;;;;;;;;;5104250;28;20119;-90
2024/01/16 13:19:39;;;;;;;13.27;7.40;;;;;;;;;;5104405;28;20085;-90
2024/01/16 13:22:23;;;;;;;9.18;7.20;;;;;;;;;;5103382;28;20105;-90
2024/01/16 13:25:08;;;;;;;9.23;7.38;;;;;;;;;;5102376;28;20468;-90
2024/01/16 13:27:53;;;;;;;9.40;7.57;;;;;;;;;;5118817;28;20039;-90
2024/01/16 13:30:37;;;;;;;8.05;7.25;;;;;;;;;;5103239;28;20564;-90
2024/01/16 13:33:22;;;;;;;8.68;7.82;;;;;;;;;;5103472;28;20054;-90
2024/01/16 13:36:07;;;;;;;13.65;7.85;;;;;;;;;;5103961;28;20039;-90
2024/01/16 13:38:51;;;;;;;9.70;8.80;;;;;;;;;;5103789;28;20039;-90
2024/01/16 13:41:35;;;;;;;14.40;10.23;;;;;;;;;;5103752;28;20070;-90
2024/01/16 13:44:19;;;;;;;14.82;8.07;;;;;;;;;;5103261;28;20500;-90
2024/01/16 13:47:03;;;;;;;9.25;7.32;;;;;;;;;;5103063;28;20077;-90
2024/01/16 13:49:47;;;;;;;10.98;7.97;;;;;;;;;;5107871;28;20047;-90
2024/01/16 13:52:32;;;;;;;9.05;6.78;;;;;;;;;;5113199;28;20567;-91
2024/01/16 13:55:22;;;;;;;11.15;6.47;;;;;;;;;;5113392;28;20066;-90
2024/01/16 13:58:06;;;;;;;9.75;6.38;;;;;;;;;;5115034;28;20058;-91
2024/01/16 14:00:51;;;;;;;8.95;6.95;;;;;;;;;;5113008;28;20121;-90
2024/01/16 14:03:38;;;;;;;9.95;6.70;;;;;;;;;;5111930;28;20049;-91
2024/01/16 14:06:22;;;;;;;9.70;7.07;;;;;;;;;;5106689;28;20034;-90
2024/01/16 14:09:09;;;;;;;9.40;7.65;;;;;;;;;;5108363;28;20556;-90
2024/01/16 14:11:53;;;;;;;8.57;7.50;;;;;;;;;;5108110;28;20035;-90
2024/01/16 14:14:41;;;;;;;7.65;6.95;;;;;;;;;;5111001;28;20062;-91
2024/01/16 14:17:26;;;;;;;6.45;5.57;;;;;;;;;;5105816;28;20038;-91
2024/01/16 14:20:11;;;;;;;9.85;6.78;;;;;;;;;;5102684;28;20038;-90
2024/01/16 14:22:55;;;;;;;7.95;7.03;;;;;;;;;;5103499;28;20042;-90
2024/01/16 14:25:49;;;;;;;8.15;7.03;;;;;;;;;;5102936;28;20131;-90
2024/01/16 14:28:33;;;;;;;8.40;6.55;;;;;;;;;;5102039;28;20042;-90
2024/01/16 14:31:17;;;;;;;8.63;6.57;;;;;;;;;;5102806;28;20043;-90
2024/01/16 14:34:01;;;;;;;7.25;6.35;;;;;;;;;;5107155;28;20115;-90
2024/01/16 14:36:45;;;;;;;7.35;6.65;;;;;;;;;;5102228;28;20038;-90
2024/01/16 14:39:30;;;;;;;10.82;7.22;;;;;;;;;;5102158;28;20038;-90
2024/01/16 14:42:14;;;;;;;9.93;7.18;;;;;;;;;;5101633;28;20096;-90
2024/01/16 14:44:58;;;;;;;8.77;6.40;;;;;;;;;;5101947;28;20046;-90
2024/01/16 14:47:42;;;;;;;8.82;6.30;;;;;;;;;;5102024;28;20115;-90
2024/01/16 14:54:06;;;;;;;6.97;6.32;;;;;;;;;;5117687;28;20073;-91
2024/01/16 14:56:50;;;;;;;6.63;5.93;;;;;;;;;;5102335;28;20042;-90
2024/01/16 14:59:34;;;;;;;7.05;6.35;;;;;;;;;;5101693;28;20046;-90
2024/01/16 15:02:20;;;;;;;7.65;6.63;;;;;;;;;;5101904;28;20058;-90
2024/01/16 15:05:06;;;;;;;8.45;6.70;;;;;;;;;;5101878;28;20524;-91
2024/01/16 15:07:53;;;;;;;7.90;6.50;;;;;;;;;;5101290;28;20046;-89
2024/01/16 15:10:37;;;;;;;9.93;6.82;;;;;;;;;;5100682;28;20043;-90
2024/01/16 15:13:23;;;;;;;14.35;6.40;;;;;;;;;;5100823;28;20038;-90
2024/01/16 15:16:07;;;;;;;8.45;5.90;;;;;;;;;;5100211;28;20508;-89
2024/01/16 15:18:51;;;;;;;9.75;6.30;;;;;;;;;;5100558;28;20545;-90
2024/01/16 15:21:36;;;;;;;7.07;5.97;;;;;;;;;;5100875;28;20528;-90
2024/01/16 15:24:26;;;;;;;9.85;5.82;;;;;;;;;;5102964;28;20042;-91
2024/01/16 15:27:10;;;;;;;10.32;5.82;;;;;;;;;;5100523;28;20038;-90
2024/01/16 15:29:55;;;;;;;8.23;5.93;;;;;;;;;;5101672;28;20100;-91
2024/01/16 15:32:42;;;;;;;11.93;6.28;;;;;;;;;;5102196;28;20050;-88
2024/01/16 15:35:27;;;;;;;6.60;5.65;;;;;;;;;;5101167;28;20101;-90
2024/01/16 15:38:10;;;;;;;6.57;5.90;;;;;;;;;;5103276;28;20046;-89
2024/01/16 15:40:54;;;;;;;11.82;6.80;;;;;;;;;;5109969;28;20047;-89
2024/01/16 15:43:38;;;;;;;13.68;6.18;;;;;;;;;;5101359;28;20394;-83
2024/01/16 15:46:23;;;;;;;6.80;6.10;;;;;;;;;;5101242;28;20039;-84
2024/01/16 15:49:10;;;;;;;7.68;6.25;;;;;;;;;;5100439;28;20036;-83
2024/01/16 15:51:54;;;;;;;8.25;6.00;;;;;;;;;;5099548;28;20531;-83
2024/01/16 15:54:39;;;;;;;6.40;5.80;;;;;;;;;;5100766;27;20427;-84
2024/01/16 15:57:23;;;;;;;8.93;6.28;;;;;;;;;;5102722;27;20030;-83
2024/01/16 16:00:09;;;;;;;7.55;6.03;;;;;;;;;;5101259;28;20100;-83
2024/01/16 16:02:54;;;;;;;6.50;5.90;;;;;;;;;;5100439;28;20058;-84
2024/01/16 16:24:27;;;;;;;8.13;6.53;;;;;;;;;;4890212;29;20092;-87
2024/01/16 16:30:39;;;;;;;6.28;5.68;;;;;;;;;;4916924;29;20075;-86
2024/01/16 16:33:24;;;;;;;7.18;5.55;;;;;;;;;;4928163;29;20108;-85
2024/01/16 16:36:08;;;;;;;6.57;5.90;;;;;;;;;;4924175;29;20043;-87
2024/01/16 16:39:12;;;;;;;9.88;5.70;;;;;;;;;;4929548;29;20074;-88
2024/01/16 16:41:57;;;;;;;6.82;5.50;;;;;;;;;;4909710;29;20504;-89
2024/01/16 16:44:41;;;;;;;8.20;6.25;;;;;;;;;;4910734;29;20043;-86
2024/01/16 16:47:25;;;;;;;9.00;5.88;;;;;;;;;;4924065;29;20039;-88